createdAt,value
2023-12-09T00:01:32.124Z,98978.14
2023-12-09T00:04:00.489Z,98978.11
2023-12-09T00:06:28.946Z,98976.33
2023-12-09T00:08:57.395Z,98973.89
2023-12-09T00:11:25.538Z,98971.33
2023-12-09T00:13:53.650Z,98976.52
2023-12-09T00:16:21.958Z,98976.50
2023-12-09T00:18:50.359Z,98977.00
2023-12-09T00:21:18.876Z,98972.61
2023-12-09T00:23:48.417Z,98967.36
2023-12-09T00:26:17.314Z,98974.60
2023-12-09T00:28:46.662Z,98979.40
2023-12-09T00:31:14.909Z,98981.59
2023-12-09T00:33:43.425Z,98982.05
2023-12-09T00:36:11.877Z,98979.07
2023-12-09T00:38:41.199Z,98980.46
2023-12-09T00:41:10.876Z,98983.52
2023-12-09T00:43:39.109Z,98981.93
2023-12-09T00:46:07.614Z,98985.34
2023-12-09T00:48:35.934Z,98980.08
2023-12-09T00:51:04.926Z,98981.80
2023-12-09T00:53:33.135Z,98982.00
2023-12-09T00:56:01.329Z,98981.60
2023-12-09T00:58:29.524Z,98986.27
2023-12-09T01:00:57.750Z,98992.11
2023-12-09T01:03:26.006Z,98993.28
2023-12-09T01:05:54.317Z,98994.85
2023-12-09T01:08:22.522Z,98994.80
2023-12-09T01:10:50.683Z,98998.02
2023-12-09T01:13:19.166Z,99000.02
2023-12-09T01:15:47.647Z,99006.71
2023-12-09T01:18:15.945Z,99006.14
2023-12-09T01:20:44.180Z,99009.05
2023-12-09T01:23:12.854Z,99009.36
2023-12-09T01:25:41.038Z,99007.92
2023-12-09T01:28:09.221Z,99008.52
2023-12-09T01:30:37.444Z,99007.11
2023-12-09T01:33:05.962Z,99007.62
2023-12-09T01:35:34.295Z,99012.11
2023-12-09T01:38:02.913Z,99011.08
2023-12-09T01:40:31.056Z,99004.80
2023-12-09T01:42:59.236Z,99006.57
2023-12-09T01:45:27.494Z,99002.43
2023-12-09T01:47:55.864Z,99001.95
2023-12-09T01:50:24.617Z,99004.20
2023-12-09T01:52:53.368Z,99002.85
2023-12-09T01:55:21.582Z,99002.73
2023-12-09T01:57:49.845Z,99006.48
2023-12-09T02:00:20.705Z,99010.23
2023-12-09T02:02:50.262Z,99005.64
2023-12-09T02:05:18.870Z,99005.84
2023-12-09T02:07:47.098Z,99007.25
2023-12-09T02:10:18.013Z,99006.09
2023-12-09T02:12:55.503Z,99008.21
2023-12-09T02:15:28.441Z,99012.39
2023-12-09T02:18:06.018Z,99013.65
2023-12-09T02:20:35.147Z,99016.14
2023-12-09T02:23:09.850Z,99014.14
2023-12-09T02:25:39.366Z,99010.91
2023-12-09T02:28:15.019Z,99009.35
2023-12-09T02:31:03.424Z,99006.61
2023-12-09T02:33:33.223Z,99008.19
2023-12-09T02:36:04.894Z,99006.48
2023-12-09T02:38:35.738Z,99008.27
2023-12-09T02:41:05.064Z,99010.91
2023-12-09T02:43:33.245Z,99009.53
2023-12-09T02:46:01.429Z,99007.08
2023-12-09T02:48:29.930Z,99001.53
2023-12-09T02:50:58.176Z,99005.73
2023-12-09T02:53:26.337Z,98999.35
2023-12-09T02:55:54.485Z,98999.36
2023-12-09T02:58:22.634Z,99000.92
2023-12-09T03:00:50.877Z,99000.61
2023-12-09T03:03:19.133Z,99002.37
2023-12-09T03:05:47.432Z,98999.61
2023-12-09T03:08:15.684Z,98997.01
2023-12-09T03:10:43.844Z,99000.29
2023-12-09T03:13:13.014Z,98996.50
2023-12-09T03:15:41.220Z,98994.75
2023-12-09T03:18:09.588Z,98992.14
2023-12-09T03:20:38.122Z,98994.02
2023-12-09T03:23:06.273Z,98994.96
2023-12-09T03:25:34.599Z,98996.48
2023-12-09T03:28:02.772Z,98996.27
2023-12-09T03:30:31.019Z,98995.52
2023-12-09T03:32:59.378Z,98993.58
2023-12-09T03:35:27.856Z,98988.30
2023-12-09T03:37:55.976Z,98988.03
2023-12-09T03:40:24.112Z,98986.58
2023-12-09T03:42:52.203Z,98985.00
2023-12-09T03:45:20.391Z,98987.05
2023-12-09T03:47:48.690Z,98989.46
2023-12-09T03:50:17.027Z,98988.92
2023-12-09T03:52:45.192Z,98981.64
2023-12-09T03:55:15.637Z,98983.88
2023-12-09T03:57:45.614Z,98984.04
2023-12-09T04:00:14.264Z,98984.85
2023-12-09T04:02:42.410Z,98987.96
2023-12-09T04:05:11.332Z,98991.63
2023-12-09T04:07:39.599Z,98989.33
2023-12-09T04:10:10.389Z,98988.58
2023-12-09T04:12:38.747Z,98987.37
2023-12-09T04:15:08.364Z,98987.15
2023-12-09T04:17:37.626Z,98989.54
2023-12-09T04:20:10.179Z,98992.16
2023-12-09T04:22:41.525Z,98993.55
2023-12-09T04:25:10.244Z,98994.80
2023-12-09T04:27:38.462Z,98996.51
2023-12-09T04:30:07.362Z,99001.14
2023-12-09T04:32:36.491Z,99001.61
2023-12-09T04:35:05.075Z,99003.02
2023-12-09T04:37:33.547Z,99000.90
2023-12-09T04:40:02.508Z,99000.38
2023-12-09T04:42:30.903Z,98998.29
2023-12-09T04:44:59.287Z,98996.19
2023-12-09T04:47:27.965Z,98995.47
2023-12-09T04:49:56.127Z,98997.00
2023-12-09T04:52:24.835Z,98997.36
2023-12-09T04:54:53.724Z,98991.61
2023-12-09T04:57:22.188Z,98990.73
2023-12-09T04:59:50.748Z,98989.70
2023-12-09T05:02:21.637Z,98989.01
2023-12-09T05:04:50.220Z,98989.31
2023-12-09T05:07:18.397Z,98987.55
2023-12-09T05:09:46.623Z,98990.86
2023-12-09T05:12:15.637Z,98989.09
2023-12-09T05:14:43.858Z,98990.98
2023-12-09T05:17:12.779Z,98988.05
2023-12-09T05:19:41.029Z,98987.73
2023-12-09T05:22:09.323Z,98982.70
2023-12-09T05:24:37.565Z,98982.48
2023-12-09T05:27:06.100Z,98979.04
2023-12-09T05:29:34.475Z,98977.50
2023-12-09T05:32:03.048Z,98977.85
2023-12-09T05:34:31.447Z,98980.40
2023-12-09T05:36:59.741Z,98984.09
2023-12-09T05:39:27.986Z,98987.11
2023-12-09T05:41:56.203Z,98989.25
2023-12-09T05:44:24.381Z,98991.51
2023-12-09T05:46:52.765Z,98997.05
2023-12-09T05:49:21.086Z,98999.63
2023-12-09T05:51:49.427Z,98999.42
2023-12-09T05:54:17.773Z,98998.54
2023-12-09T05:56:52.031Z,98998.86
2023-12-09T05:59:20.175Z,99003.11
2023-12-09T06:01:48.321Z,99002.15
2023-12-09T06:04:16.481Z,99005.63
2023-12-09T06:06:44.792Z,99005.27
2023-12-09T06:09:12.976Z,99005.60
2023-12-09T06:11:41.218Z,99006.93
2023-12-09T06:14:09.436Z,99007.95
2023-12-09T06:16:37.611Z,99006.22
2023-12-09T06:19:05.769Z,99007.59
2023-12-09T06:21:34.099Z,99010.34
2023-12-09T06:24:02.468Z,99012.52
2023-12-09T06:26:30.696Z,99009.52
2023-12-09T06:28:58.855Z,99017.48
2023-12-09T06:31:26.991Z,99016.08
2023-12-09T06:33:55.224Z,99017.27
2023-12-09T06:36:23.525Z,99022.75
2023-12-09T06:38:51.649Z,99023.06
2023-12-09T06:41:20.103Z,99026.17
2023-12-09T06:43:48.238Z,99028.39
2023-12-09T06:46:16.473Z,99024.17
2023-12-09T06:48:44.796Z,99026.22
2023-12-09T06:51:17.455Z,99026.59
2023-12-09T06:53:45.808Z,99025.34
2023-12-09T06:56:23.988Z,99026.15
2023-12-09T06:58:52.643Z,99023.65
2023-12-09T07:01:25.137Z,99021.73
2023-12-09T07:03:53.559Z,99021.19
2023-12-09T07:06:23.579Z,99022.89
2023-12-09T07:08:52.784Z,99019.52
2023-12-09T07:11:22.414Z,99020.01
2023-12-09T07:13:51.216Z,99016.30
2023-12-09T07:16:19.948Z,99013.66
2023-12-09T07:18:49.449Z,99011.37
2023-12-09T07:21:18.662Z,99011.70
2023-12-09T07:23:47.038Z,99010.52
2023-12-09T07:26:15.578Z,99011.56
2023-12-09T07:28:43.789Z,99012.88
2023-12-09T07:31:12.775Z,99016.09
2023-12-09T07:33:41.102Z,99014.77
2023-12-09T07:36:09.843Z,99012.36
2023-12-09T07:38:38.086Z,99012.20
2023-12-09T07:41:06.513Z,99008.77
2023-12-09T07:43:35.654Z,99010.94
2023-12-09T07:46:05.195Z,99008.23
2023-12-09T07:48:33.638Z,99008.61
2023-12-09T07:51:02.611Z,99008.13
2023-12-09T07:53:31.359Z,99005.77
2023-12-09T07:55:59.644Z,99006.08
2023-12-09T07:58:28.090Z,99006.83
2023-12-09T08:00:56.529Z,99002.54
2023-12-09T08:03:24.886Z,98999.48
2023-12-09T08:05:53.292Z,98998.70
2023-12-09T08:08:21.459Z,98998.72
2023-12-09T08:10:49.693Z,98999.77
2023-12-09T08:13:17.860Z,98999.48
2023-12-09T08:15:46.079Z,98998.48
2023-12-09T08:18:14.376Z,99001.45
2023-12-09T08:20:42.812Z,99000.08
2023-12-09T08:23:10.996Z,98998.19
2023-12-09T08:25:39.309Z,98999.63
2023-12-09T08:28:08.583Z,98998.77
2023-12-09T08:30:37.095Z,98995.24
2023-12-09T08:33:05.510Z,98993.02
2023-12-09T08:35:34.100Z,98990.41
2023-12-09T08:38:02.395Z,98989.09
2023-12-09T08:40:30.555Z,98990.76
2023-12-09T08:42:58.844Z,98992.96
2023-12-09T08:45:27.022Z,98988.93
2023-12-09T08:47:55.301Z,98989.80
2023-12-09T08:50:25.530Z,98991.59
2023-12-09T08:52:54.624Z,98992.52
2023-12-09T08:55:24.020Z,98998.73
2023-12-09T08:57:53.755Z,98994.98
2023-12-09T09:00:25.109Z,98998.13
2023-12-09T09:02:57.218Z,98994.77
2023-12-09T09:05:25.876Z,98996.47
2023-12-09T09:07:54.161Z,98998.94
2023-12-09T09:10:24.207Z,98999.41
2023-12-09T09:12:52.634Z,99003.09
2023-12-09T09:15:22.127Z,99003.35
2023-12-09T09:17:50.772Z,99001.19
2023-12-09T09:20:19.228Z,99002.30
2023-12-09T09:22:48.594Z,98996.55
2023-12-09T09:25:17.295Z,98994.30
2023-12-09T09:27:46.009Z,98990.58
2023-12-09T09:30:15.081Z,98986.89
2023-12-09T09:32:43.490Z,98985.65
2023-12-09T09:35:11.857Z,98984.71
2023-12-09T09:37:39.950Z,98984.11
2023-12-09T09:40:08.740Z,98989.90
2023-12-09T09:43:01.715Z,98987.20
2023-12-09T09:45:32.172Z,98982.42
2023-12-09T09:48:07.407Z,98979.89
2023-12-09T09:50:43.544Z,98975.56
2023-12-09T09:53:14.094Z,98973.08
2023-12-09T09:55:43.317Z,98967.85
2023-12-09T09:58:14.645Z,98964.52
2023-12-09T10:00:43.256Z,98959.77
2023-12-09T10:03:11.715Z,98954.70
2023-12-09T10:05:40.030Z,98951.27
2023-12-09T10:08:08.199Z,98949.26
2023-12-09T10:10:36.557Z,98947.66
2023-12-09T10:13:05.074Z,98946.37
2023-12-09T10:15:33.632Z,98941.38
2023-12-09T10:18:05.084Z,98939.02
2023-12-09T10:20:36.389Z,98938.93
2023-12-09T10:23:04.923Z,98938.88
2023-12-09T10:25:33.126Z,98931.95
2023-12-09T10:28:01.347Z,98929.08
2023-12-09T10:30:30.052Z,98925.09
2023-12-09T10:33:00.635Z,98921.29
2023-12-09T10:35:29.649Z,98922.67
2023-12-09T10:38:02.207Z,98921.38
2023-12-09T10:40:30.402Z,98919.58
2023-12-09T10:42:58.720Z,98917.83
2023-12-09T10:45:26.976Z,98920.37
2023-12-09T10:47:55.314Z,98915.46
2023-12-09T10:50:23.996Z,98913.88
2023-12-09T10:52:52.130Z,98913.56
2023-12-09T10:55:20.890Z,98911.70
2023-12-09T10:57:51.597Z,98915.03
2023-12-09T11:00:20.487Z,98905.31
2023-12-09T11:02:49.293Z,98904.28
2023-12-09T11:05:19.369Z,98893.38
2023-12-09T11:07:48.482Z,98893.20
2023-12-09T11:10:17.452Z,98892.44
2023-12-09T11:12:49.270Z,98891.96
2023-12-09T11:15:23.547Z,98885.80
2023-12-09T11:17:55.169Z,98880.27
2023-12-09T11:20:26.343Z,98875.31
2023-12-09T11:22:54.765Z,98876.95
2023-12-09T11:25:26.617Z,98876.27
2023-12-09T11:27:55.773Z,98870.46
2023-12-09T11:30:38.338Z,98866.00
2023-12-09T11:33:06.734Z,98871.04
2023-12-09T11:35:36.510Z,98868.20
2023-12-09T11:38:07.476Z,98862.73
2023-12-09T11:40:35.848Z,98864.73
2023-12-09T11:43:04.899Z,98863.94
2023-12-09T11:45:33.432Z,98858.84
2023-12-09T11:48:04.878Z,98852.73
2023-12-09T11:50:33.394Z,98852.65
2023-12-09T11:53:01.519Z,98848.11
2023-12-09T11:55:30.624Z,98845.55
2023-12-09T11:57:58.918Z,98840.04
2023-12-09T12:00:27.618Z,98834.84
2023-12-09T12:02:56.284Z,98832.13
2023-12-09T12:05:24.711Z,98829.88
2023-12-09T12:07:53.364Z,98825.34
2023-12-09T12:10:21.909Z,98826.25
2023-12-09T12:12:50.378Z,98827.08
2023-12-09T12:15:18.972Z,98826.52
2023-12-09T12:17:48.258Z,98824.17
2023-12-09T12:20:16.811Z,98825.55
2023-12-09T12:22:45.268Z,98827.45
2023-12-09T12:25:13.660Z,98826.62
2023-12-09T12:27:46.443Z,98821.38
2023-12-09T12:30:15.637Z,98817.70
2023-12-09T12:32:44.841Z,98815.12
2023-12-09T12:35:13.745Z,98808.52
2023-12-09T12:37:42.178Z,98809.84
2023-12-09T12:40:11.394Z,98804.55
2023-12-09T12:42:40.473Z,98800.70
2023-12-09T12:45:20.192Z,98793.89
2023-12-09T12:47:49.257Z,98783.69
2023-12-09T12:50:18.752Z,98778.06
2023-12-09T12:52:47.122Z,98774.77
2023-12-09T12:55:15.440Z,98778.73
2023-12-09T12:57:45.253Z,98779.56
2023-12-09T13:00:15.933Z,98776.53
2023-12-09T13:02:44.900Z,98776.31
2023-12-09T13:05:13.406Z,98771.26
2023-12-09T13:07:42.088Z,98771.38
2023-12-09T13:10:11.005Z,98770.92
2023-12-09T13:12:39.356Z,98772.81
2023-12-09T13:15:08.562Z,98773.80
2023-12-09T13:17:37.753Z,98767.97
2023-12-09T13:20:06.850Z,98766.91
2023-12-09T13:22:35.302Z,98761.86
2023-12-09T13:25:08.542Z,98759.80
2023-12-09T13:27:38.380Z,98756.14
2023-12-09T13:30:08.362Z,98755.14
2023-12-09T13:32:37.827Z,98751.07
2023-12-09T13:35:08.055Z,98747.47
2023-12-09T13:37:38.833Z,98747.97
2023-12-09T13:40:08.902Z,98748.08
2023-12-09T13:42:37.472Z,98745.53
2023-12-09T13:45:07.045Z,98733.16
2023-12-09T13:47:35.471Z,98733.16
2023-12-09T13:50:06.016Z,98731.85
2023-12-09T13:52:38.025Z,98725.94
2023-12-09T13:55:07.051Z,98723.80
2023-12-09T13:57:35.383Z,98722.50
2023-12-09T14:00:09.297Z,98716.45
2023-12-09T14:02:41.157Z,98716.52
2023-12-09T14:05:11.565Z,98719.73
2023-12-09T14:07:42.134Z,98719.73
2023-12-09T14:10:11.016Z,98720.80
2023-12-09T14:12:41.653Z,98722.54
2023-12-09T14:15:10.954Z,98719.58
2023-12-09T14:17:45.176Z,98714.81
2023-12-09T14:20:16.825Z,98717.55
2023-12-09T14:22:47.434Z,98720.28
2023-12-09T14:25:16.065Z,98721.80
2023-12-09T14:27:44.963Z,98727.38
2023-12-09T14:30:14.045Z,98726.65
2023-12-09T14:32:46.387Z,98730.48
2023-12-09T14:35:16.113Z,98732.43
2023-12-09T14:37:49.431Z,98734.29
2023-12-09T14:40:18.545Z,98732.02
2023-12-09T14:42:47.141Z,98725.91
2023-12-09T14:45:15.902Z,98727.52
2023-12-09T14:47:53.813Z,98734.31
2023-12-09T14:50:28.018Z,98728.20
2023-12-09T14:52:56.512Z,98719.52
2023-12-09T14:55:24.781Z,98717.83
2023-12-09T14:57:53.680Z,98705.13
2023-12-09T15:00:22.170Z,98702.70
2023-12-09T15:02:50.654Z,98698.61
2023-12-09T15:05:19.023Z,98701.84
2023-12-09T15:07:47.583Z,98693.02
2023-12-09T15:10:16.910Z,98680.96
2023-12-09T15:12:45.251Z,98681.07
2023-12-09T15:15:13.797Z,98687.36
2023-12-09T15:17:42.503Z,98682.50
2023-12-09T15:20:11.549Z,98672.63
2023-12-09T15:22:40.755Z,98666.79
2023-12-09T15:25:09.914Z,98662.42
2023-12-09T15:27:39.073Z,98654.96
2023-12-09T15:30:09.376Z,98660.84
2023-12-09T15:32:40.680Z,98664.15
2023-12-09T15:35:09.815Z,98662.03
2023-12-09T15:37:38.756Z,98653.28
2023-12-09T15:40:12.067Z,98655.46
2023-12-09T15:42:40.559Z,98657.33
2023-12-09T15:45:10.011Z,98657.32
2023-12-09T15:47:38.437Z,98663.15
2023-12-09T15:50:07.616Z,98660.60
2023-12-09T15:52:36.065Z,98662.22
2023-12-09T15:55:05.212Z,98661.45
2023-12-09T15:57:33.592Z,98663.98
2023-12-09T16:00:02.023Z,98664.38
2023-12-09T16:02:34.352Z,98662.90
2023-12-09T16:05:02.969Z,98658.52
2023-12-09T16:07:31.521Z,98653.59
2023-12-09T16:09:59.850Z,98636.89
2023-12-09T16:12:28.653Z,98624.66
2023-12-09T16:14:57.181Z,98623.21
2023-12-09T16:17:26.386Z,98620.86
2023-12-09T16:19:54.838Z,98617.09
2023-12-09T16:22:23.136Z,98615.22
2023-12-09T16:24:52.038Z,98614.89
2023-12-09T16:27:20.518Z,98612.08
2023-12-09T16:29:48.967Z,98607.81
2023-12-09T16:32:17.387Z,98601.59
2023-12-09T16:34:45.599Z,98591.73
2023-12-09T16:37:14.044Z,98578.96
2023-12-09T16:39:42.515Z,98568.92
2023-12-09T16:42:10.997Z,98562.52
2023-12-09T16:44:39.284Z,98553.86
2023-12-09T16:47:07.475Z,98550.60
2023-12-09T16:49:35.710Z,98546.65
2023-12-09T16:52:05.025Z,98542.27
2023-12-09T16:54:33.360Z,98535.08
2023-12-09T16:57:02.352Z,98531.83
2023-12-09T16:59:30.914Z,98528.27
2023-12-09T17:02:00.493Z,98527.25
2023-12-09T17:04:29.085Z,98520.83
2023-12-09T17:06:57.581Z,98515.60
2023-12-09T17:09:26.484Z,98515.02
2023-12-09T17:11:54.874Z,98512.16
2023-12-09T17:14:23.140Z,98511.13
2023-12-09T17:16:51.380Z,98511.35
2023-12-09T17:19:20.004Z,98502.61
2023-12-09T17:21:48.237Z,98499.34
2023-12-09T17:24:16.601Z,98505.23
2023-12-09T17:26:44.731Z,98504.77
2023-12-09T17:29:13.150Z,98502.27
2023-12-09T17:31:43.601Z,98500.94
2023-12-09T17:34:14.003Z,98499.77
2023-12-09T17:36:42.358Z,98494.20
2023-12-09T17:39:11.480Z,98489.91
2023-12-09T17:41:40.037Z,98488.29
2023-12-09T17:44:08.266Z,98485.09
2023-12-09T17:46:36.384Z,98480.81
2023-12-09T17:49:05.871Z,98473.42
2023-12-09T17:51:34.197Z,98464.61
2023-12-09T17:54:03.343Z,98453.90
2023-12-09T17:56:31.693Z,98449.57
2023-12-09T17:58:59.914Z,98437.29
2023-12-09T18:01:29.236Z,98434.35
2023-12-09T18:04:00.917Z,98426.41
2023-12-09T18:06:29.786Z,98418.14
2023-12-09T18:08:58.067Z,98406.73
2023-12-09T18:11:26.233Z,98396.00
2023-12-09T18:13:54.973Z,98389.42
2023-12-09T18:16:23.225Z,98384.58
2023-12-09T18:18:51.603Z,98381.28
2023-12-09T18:21:19.877Z,98379.08
2023-12-09T18:23:47.994Z,98374.11
2023-12-09T18:26:17.480Z,98373.46
2023-12-09T18:28:46.518Z,98372.59
2023-12-09T18:31:15.264Z,98363.90
2023-12-09T18:33:43.516Z,98350.54
2023-12-09T18:36:11.927Z,98352.98
2023-12-09T18:38:40.197Z,98354.03
2023-12-09T18:41:08.293Z,98354.91
2023-12-09T18:43:36.878Z,98352.17
2023-12-09T18:46:05.562Z,98349.80
2023-12-09T18:48:33.847Z,98346.56
2023-12-09T18:51:03.026Z,98337.42
2023-12-09T18:53:31.224Z,98330.70
2023-12-09T18:56:01.941Z,98325.81
2023-12-09T18:58:30.062Z,98320.13
2023-12-09T19:01:05.096Z,98312.36
2023-12-09T19:03:39.133Z,98308.34
2023-12-09T19:06:10.064Z,98306.52
2023-12-09T19:08:39.028Z,98300.02
2023-12-09T19:11:07.616Z,98285.23
2023-12-09T19:13:35.956Z,98281.88
2023-12-09T19:16:04.565Z,98282.83
2023-12-09T19:18:32.994Z,98273.34
2023-12-09T19:21:01.321Z,98267.34
2023-12-09T19:23:29.454Z,98255.02
2023-12-09T19:25:58.028Z,98257.75
2023-12-09T19:28:27.049Z,98251.31
2023-12-09T19:30:56.453Z,98244.29
2023-12-09T19:33:25.005Z,98242.28
2023-12-09T19:35:53.633Z,98240.67
2023-12-09T19:38:21.823Z,98239.13
2023-12-09T19:40:50.049Z,98243.39
2023-12-09T19:43:18.334Z,98235.20
2023-12-09T19:45:46.503Z,98225.30
2023-12-09T19:48:15.328Z,98220.65
2023-12-09T19:50:45.077Z,98212.98
2023-12-09T19:53:15.771Z,98209.85
2023-12-09T19:55:43.928Z,98202.50
2023-12-09T19:58:12.328Z,98193.40
2023-12-09T20:00:42.244Z,98182.52
2023-12-09T20:03:13.811Z,98169.11
2023-12-09T20:05:42.121Z,98158.88
2023-12-09T20:08:10.292Z,98154.50
2023-12-09T20:10:38.568Z,98153.87
2023-12-09T20:13:07.497Z,98150.61
2023-12-09T20:15:35.986Z,98141.40
2023-12-09T20:18:04.429Z,98130.67
2023-12-09T20:20:33.026Z,98123.45
2023-12-09T20:23:01.266Z,98120.55
2023-12-09T20:25:29.511Z,98117.29
2023-12-09T20:27:58.714Z,98121.41
2023-12-09T20:30:27.111Z,98115.13
2023-12-09T20:32:55.456Z,98112.25
2023-12-09T20:35:25.472Z,98101.23
2023-12-09T20:37:53.770Z,98099.86
2023-12-09T20:40:21.997Z,98087.40
2023-12-09T20:42:50.330Z,98069.69
2023-12-09T20:45:19.594Z,98068.55
2023-12-09T20:47:48.186Z,98070.21
2023-12-09T20:50:18.158Z,98069.14
2023-12-09T20:52:46.424Z,98057.06
2023-12-09T20:55:14.896Z,98053.67
2023-12-09T20:57:44.274Z,98045.79
2023-12-09T21:00:13.706Z,98039.48
2023-12-09T21:02:42.312Z,98036.37
2023-12-09T21:05:10.726Z,98031.41
2023-12-09T21:07:38.975Z,98034.75
2023-12-09T21:10:07.613Z,98026.19
2023-12-09T21:12:35.969Z,98027.95
2023-12-09T21:15:05.375Z,98024.69
2023-12-09T21:17:33.599Z,98032.34
2023-12-09T21:20:01.976Z,98025.14
2023-12-09T21:22:30.388Z,98021.20
2023-12-09T21:24:59.052Z,98013.20
2023-12-09T21:27:27.259Z,98010.98
2023-12-09T21:29:55.657Z,98011.27
2023-12-09T21:32:23.765Z,98009.95
2023-12-09T21:34:52.052Z,98010.77
2023-12-09T21:37:20.217Z,98007.09
2023-12-09T21:39:48.386Z,98006.74
2023-12-09T21:42:16.653Z,98007.55
2023-12-09T21:44:46.109Z,98006.00
2023-12-09T21:47:14.402Z,97999.85
2023-12-09T21:49:42.753Z,97998.54
2023-12-09T21:52:11.210Z,97996.86
2023-12-09T21:54:39.961Z,97985.18
2023-12-09T21:57:08.222Z,97979.19
2023-12-09T21:59:36.413Z,97975.08
2023-12-09T22:02:05.126Z,97964.68
2023-12-09T22:04:34.451Z,97951.66
2023-12-09T22:07:02.752Z,97946.41
2023-12-09T22:09:31.025Z,97945.27
2023-12-09T22:11:59.196Z,97944.83
2023-12-09T22:14:27.380Z,97941.94
2023-12-09T22:16:55.784Z,97939.05
2023-12-09T22:19:25.592Z,97936.77
2023-12-09T22:21:53.982Z,97934.58
2023-12-09T22:24:22.264Z,97935.92
2023-12-09T22:26:50.723Z,97929.83
2023-12-09T22:29:19.026Z,97925.80
2023-12-09T22:31:47.603Z,97928.92
2023-12-09T22:34:15.870Z,97928.59
2023-12-09T22:36:44.127Z,97933.06
2023-12-09T22:39:13.915Z,97932.14
2023-12-09T22:41:42.308Z,97925.04
2023-12-09T22:44:10.509Z,97921.20
2023-12-09T22:46:39.072Z,97928.09
2023-12-09T22:49:07.628Z,97927.95
2023-12-09T22:51:37.289Z,97916.89
2023-12-09T22:54:05.931Z,97911.23
2023-12-09T22:56:34.149Z,97913.33
2023-12-09T22:59:02.452Z,97910.86
2023-12-09T23:01:34.087Z,97904.77
2023-12-09T23:04:02.839Z,97902.16
2023-12-09T23:06:31.303Z,97899.38
2023-12-09T23:08:59.616Z,97901.83
2023-12-09T23:11:27.820Z,97896.29
2023-12-09T23:13:55.987Z,97889.66
2023-12-09T23:16:24.212Z,97885.40
2023-12-09T23:18:52.727Z,97891.77
2023-12-09T23:21:21.047Z,97892.85
2023-12-09T23:23:49.500Z,97886.70
2023-12-09T23:26:17.841Z,97875.55
2023-12-09T23:28:46.026Z,97871.00
2023-12-09T23:31:16.498Z,97864.58
2023-12-09T23:33:48.232Z,97856.30
2023-12-09T23:36:16.932Z,97852.98
2023-12-09T23:38:45.145Z,97852.59
2023-12-09T23:41:17.381Z,97849.89
2023-12-09T23:43:45.800Z,97842.46
2023-12-09T23:46:17.312Z,97833.31
2023-12-09T23:48:45.776Z,97832.13
2023-12-09T23:51:14.093Z,97830.59
2023-12-09T23:53:42.247Z,97822.84
2023-12-09T23:56:10.552Z,97825.41
2023-12-09T23:58:38.929Z,97815.12
